Time;durP1;ratioP1;P1;durP2;ratioP2;P2;SDS_P1;SDS_P2;PMS_P1;PMS_P2;Temp;Humidity;BMP_temperature;BMP_pressure;BME280_temperature;BME280_humidity;BME280_pressure;Samples;Min_cycle;Max_cycle;Signal;HPM_P1;HPM_P2
2023/04/20 00:01:19;;;;;;;3.73;2.57;;;;;;;;;;5033101;28;20594;-51
2023/04/20 00:03:44;;;;;;;4.23;2.63;;;;;;;;;;5033052;28;20228;-51
2023/04/20 00:06:12;;;;;;;3.13;2.67;;;;;;;;;;5033365;28;20596;-50
2023/04/20 00:08:38;;;;;;;4.90;2.70;;;;;;;;;;5033092;28;20570;-51
2023/04/20 00:11:05;;;;;;;3.10;2.60;;;;;;;;;;5032996;28;20774;-51
2023/04/20 00:13:31;;;;;;;2.87;2.47;;;;;;;;;;5032898;28;20207;-52
2023/04/20 00:15:57;;;;;;;2.60;2.40;;;;;;;;;;5033170;28;20197;-53
2023/04/20 00:18:23;;;;;;;2.93;2.67;;;;;;;;;;5033012;28;20578;-51
2023/04/20 00:20:48;;;;;;;2.60;2.40;;;;;;;;;;5032804;28;20285;-52
2023/04/20 00:23:16;;;;;;;2.80;2.60;;;;;;;;;;5032750;28;20302;-52
2023/04/20 00:25:42;;;;;;;2.50;2.30;;;;;;;;;;5032875;28;20201;-52
2023/04/20 00:28:08;;;;;;;3.93;2.80;;;;;;;;;;5032895;28;20357;-52
2023/04/20 00:30:34;;;;;;;3.73;2.73;;;;;;;;;;5032583;28;20247;-52
2023/04/20 00:33:00;;;;;;;2.90;2.50;;;;;;;;;;5032406;28;20205;-52
2023/04/20 00:35:26;;;;;;;3.67;3.03;;;;;;;;;;5032958;28;20276;-52
2023/04/20 00:37:52;;;;;;;3.20;2.90;;;;;;;;;;5032641;28;20197;-52
2023/04/20 00:40:19;;;;;;;3.03;2.73;;;;;;;;;;5032448;28;20211;-52
2023/04/20 00:42:45;;;;;;;4.57;2.77;;;;;;;;;;5032292;28;20310;-52
2023/04/20 00:45:11;;;;;;;3.30;3.00;;;;;;;;;;5032608;28;20201;-52
2023/04/20 00:47:37;;;;;;;3.10;2.67;;;;;;;;;;5032385;28;20201;-52
2023/04/20 00:50:04;;;;;;;5.53;2.87;;;;;;;;;;5032260;28;20227;-52
2023/04/20 00:52:30;;;;;;;4.63;3.07;;;;;;;;;;5032256;28;20197;-52
2023/04/20 00:54:56;;;;;;;4.20;2.90;;;;;;;;;;5032383;28;20203;-52
2023/04/20 00:57:24;;;;;;;3.63;2.90;;;;;;;;;;5032157;28;20683;-52
2023/04/20 00:59:50;;;;;;;3.53;2.80;;;;;;;;;;5031788;28;20632;-52
2023/04/20 01:02:17;;;;;;;4.07;3.10;;;;;;;;;;5032035;28;20201;-52
2023/04/20 01:04:43;;;;;;;7.13;2.70;;;;;;;;;;5032031;28;20724;-52
2023/04/20 01:07:09;;;;;;;4.63;2.77;;;;;;;;;;5031872;28;20651;-52
2023/04/20 01:09:37;;;;;;;4.53;2.57;;;;;;;;;;5031920;28;20201;-51
2023/04/20 01:12:03;;;;;;;4.10;2.90;;;;;;;;;;5031956;28;20200;-52
2023/04/20 01:14:30;;;;;;;4.83;3.33;;;;;;;;;;5031804;28;20284;-52
2023/04/20 01:16:57;;;;;;;4.00;2.87;;;;;;;;;;5031979;28;20216;-51
2023/04/20 01:19:23;;;;;;;5.17;3.03;;;;;;;;;;5031953;28;20210;-52
2023/04/20 01:21:49;;;;;;;4.53;3.23;;;;;;;;;;5031612;28;20243;-52
2023/04/20 01:24:17;;;;;;;3.37;2.73;;;;;;;;;;5031658;28;20228;-52
2023/04/20 01:26:43;;;;;;;3.67;3.00;;;;;;;;;;5031717;28;20205;-52
2023/04/20 01:29:09;;;;;;;7.57;3.07;;;;;;;;;;5031852;28;20217;-52
2023/04/20 01:31:35;;;;;;;3.80;2.80;;;;;;;;;;5031506;28;20639;-52
2023/04/20 01:34:01;;;;;;;3.07;2.77;;;;;;;;;;5031512;28;20193;-52
2023/04/20 01:36:27;;;;;;;4.57;3.17;;;;;;;;;;5031692;28;20197;-52
2023/04/20 01:38:53;;;;;;;5.77;2.83;;;;;;;;;;5031493;28;20689;-51
2023/04/20 01:41:20;;;;;;;3.03;2.73;;;;;;;;;;5031599;28;20445;-51
2023/04/20 01:43:46;;;;;;;5.53;3.10;;;;;;;;;;5031335;28;20232;-51
2023/04/20 01:46:12;;;;;;;3.53;3.00;;;;;;;;;;5031470;28;20197;-51
2023/04/20 01:48:38;;;;;;;4.77;2.83;;;;;;;;;;5031270;28;20197;-52
2023/04/20 01:51:04;;;;;;;6.30;3.10;;;;;;;;;;5031353;28;20196;-52
2023/04/20 01:53:30;;;;;;;5.73;3.10;;;;;;;;;;5031163;28;20188;-52
2023/04/20 01:55:56;;;;;;;3.60;2.73;;;;;;;;;;5031298;28;20199;-52
2023/04/20 01:58:24;;;;;;;5.53;2.90;;;;;;;;;;5031082;28;20236;-52
2023/04/20 02:00:49;;;;;;;4.00;2.90;;;;;;;;;;5031106;28;20204;-52
2023/04/20 02:03:16;;;;;;;4.00;2.73;;;;;;;;;;5031123;28;20574;-52
2023/04/20 02:05:41;;;;;;;3.00;2.70;;;;;;;;;;5031225;28;20251;-52
2023/04/20 02:08:07;;;;;;;4.73;2.93;;;;;;;;;;5031304;28;20209;-52
2023/04/20 02:10:34;;;;;;;3.30;3.00;;;;;;;;;;5030993;28;20201;-52
2023/04/20 02:13:00;;;;;;;3.83;3.23;;;;;;;;;;5031049;28;20659;-52
2023/04/20 02:15:27;;;;;;;3.10;2.70;;;;;;;;;;5031158;28;20201;-52
2023/04/20 02:17:53;;;;;;;3.57;2.83;;;;;;;;;;5032232;28;20227;-52
2023/04/20 02:20:19;;;;;;;5.47;3.10;;;;;;;;;;5035146;28;20690;-52
2023/04/20 02:22:45;;;;;;;3.50;2.90;;;;;;;;;;5034956;28;20639;-52
2023/04/20 02:25:11;;;;;;;4.57;3.00;;;;;;;;;;5034934;28;20781;-52
2023/04/20 02:27:37;;;;;;;3.90;3.13;;;;;;;;;;5034961;28;20204;-52
2023/04/20 02:30:04;;;;;;;4.80;3.03;;;;;;;;;;5034963;28;20299;-53
2023/04/20 02:32:32;;;;;;;3.20;2.80;;;;;;;;;;5034852;28;20608;-52
2023/04/20 02:34:58;;;;;;;3.27;2.73;;;;;;;;;;5034873;28;20209;-52
2023/04/20 02:37:24;;;;;;;4.33;3.00;;;;;;;;;;5034920;28;20196;-52
2023/04/20 02:39:50;;;;;;;4.17;2.70;;;;;;;;;;5034686;28;20235;-53
2023/04/20 02:42:16;;;;;;;4.10;2.70;;;;;;;;;;5034724;28;20246;-53
2023/04/20 02:44:42;;;;;;;7.20;3.27;;;;;;;;;;5034731;28;20251;-52
2023/04/20 02:47:08;;;;;;;4.93;3.10;;;;;;;;;;5034869;28;20207;-52
2023/04/20 02:49:35;;;;;;;4.27;3.37;;;;;;;;;;5034552;28;20271;-52
2023/04/20 02:52:01;;;;;;;4.47;2.97;;;;;;;;;;5034489;28;20713;-52
2023/04/20 02:54:28;;;;;;;4.33;2.77;;;;;;;;;;5034582;28;20197;-52
2023/04/20 02:56:54;;;;;;;3.83;2.60;;;;;;;;;;5034316;28;21185;-52
2023/04/20 02:59:20;;;;;;;5.43;3.03;;;;;;;;;;5034161;28;20591;-53
2023/04/20 03:01:46;;;;;;;4.37;3.10;;;;;;;;;;5034189;28;20197;-52
2023/04/20 03:04:12;;;;;;;4.57;2.87;;;;;;;;;;5034458;28;20225;-52
2023/04/20 03:06:39;;;;;;;4.10;3.10;;;;;;;;;;5034359;28;20279;-52
2023/04/20 03:09:06;;;;;;;3.80;3.10;;;;;;;;;;5034218;28;20300;-52
2023/04/20 03:11:32;;;;;;;3.87;3.47;;;;;;;;;;5034115;28;20737;-52
2023/04/20 03:13:58;;;;;;;6.20;3.33;;;;;;;;;;5034198;28;20193;-52
2023/04/20 03:16:24;;;;;;;5.33;2.80;;;;;;;;;;5034240;28;20192;-52
2023/04/20 03:18:50;;;;;;;4.00;3.00;;;;;;;;;;5034018;28;20711;-52
2023/04/20 03:21:16;;;;;;;4.50;3.13;;;;;;;;;;5034037;28;20284;-52
2023/04/20 03:23:43;;;;;;;3.53;3.00;;;;;;;;;;5033921;28;20232;-52
2023/04/20 03:26:09;;;;;;;3.57;2.93;;;;;;;;;;5034148;28;20208;-53
2023/04/20 03:28:35;;;;;;;4.30;2.73;;;;;;;;;;5033686;28;20251;-52
2023/04/20 03:31:01;;;;;;;3.30;2.60;;;;;;;;;;5033756;28;20197;-53
2023/04/20 03:33:27;;;;;;;3.60;3.30;;;;;;;;;;5033867;28;20216;-52
2023/04/20 03:35:53;;;;;;;4.80;3.47;;;;;;;;;;5033753;28;20262;-52
2023/04/20 03:38:20;;;;;;;3.77;3.03;;;;;;;;;;5033732;28;20209;-52
2023/04/20 03:40:48;;;;;;;4.97;3.20;;;;;;;;;;5033547;28;20199;-52
2023/04/20 03:43:14;;;;;;;4.00;2.97;;;;;;;;;;5033586;28;20236;-52
2023/04/20 03:45:41;;;;;;;3.77;2.60;;;;;;;;;;5033540;28;20219;-52
2023/04/20 03:48:07;;;;;;;5.23;3.13;;;;;;;;;;5033453;28;20193;-53
2023/04/20 03:50:33;;;;;;;4.63;3.17;;;;;;;;;;5033396;28;20251;-52
2023/04/20 03:52:59;;;;;;;4.63;2.87;;;;;;;;;;5033366;28;20254;-52
2023/04/20 03:55:25;;;;;;;3.43;2.70;;;;;;;;;;5033589;28;20288;-52
2023/04/20 03:57:53;;;;;;;4.00;3.07;;;;;;;;;;5032884;28;20250;-52
2023/04/20 04:00:19;;;;;;;3.53;2.90;;;;;;;;;;5033237;28;20201;-52
2023/04/20 04:02:45;;;;;;;4.20;3.00;;;;;;;;;;5033003;28;20714;-52
2023/04/20 04:05:11;;;;;;;4.00;3.30;;;;;;;;;;5033426;28;20228;-52
2023/04/20 04:07:37;;;;;;;3.70;2.83;;;;;;;;;;5033140;28;20207;-52
2023/04/20 04:10:04;;;;;;;3.90;2.80;;;;;;;;;;5033187;28;20301;-52
2023/04/20 04:12:30;;;;;;;5.13;3.07;;;;;;;;;;5032980;28;20247;-51
2023/04/20 04:14:58;;;;;;;3.87;3.00;;;;;;;;;;5032947;28;20596;-51
2023/04/20 04:17:24;;;;;;;3.30;3.00;;;;;;;;;;5033120;28;20205;-51
2023/04/20 04:19:50;;;;;;;5.03;3.07;;;;;;;;;;5015056;28;20267;-51
2023/04/20 04:22:16;;;;;;;4.80;3.37;;;;;;;;;;5032855;28;20596;-51
2023/04/20 04:24:42;;;;;;;3.47;2.90;;;;;;;;;;5032734;28;20725;-52
2023/04/20 04:27:10;;;;;;;5.13;3.10;;;;;;;;;;5032927;28;20193;-51
2023/04/20 04:29:37;;;;;;;6.83;3.53;;;;;;;;;;5032573;28;20211;-51
2023/04/20 04:32:05;;;;;;;3.70;3.00;;;;;;;;;;5032623;28;20271;-51
2023/04/20 04:34:32;;;;;;;6.77;3.03;;;;;;;;;;5032584;28;20201;-52
2023/04/20 04:36:58;;;;;;;6.27;3.30;;;;;;;;;;5032518;28;20200;-52
2023/04/20 04:39:25;;;;;;;4.50;3.00;;;;;;;;;;5032730;28;20220;-51
2023/04/20 04:41:51;;;;;;;3.50;2.83;;;;;;;;;;5031652;28;20220;-51
2023/04/20 04:44:17;;;;;;;4.73;3.13;;;;;;;;;;5032267;28;20274;-51
2023/04/20 04:46:44;;;;;;;3.90;2.87;;;;;;;;;;5032326;28;20708;-53
2023/04/20 04:49:11;;;;;;;4.17;3.00;;;;;;;;;;5032565;28;20223;-52
2023/04/20 04:51:37;;;;;;;4.77;3.30;;;;;;;;;;5032265;28;20415;-51
2023/04/20 04:54:04;;;;;;;5.13;3.40;;;;;;;;;;5032349;28;20196;-52
2023/04/20 04:56:30;;;;;;;5.57;3.40;;;;;;;;;;5032055;28;20225;-52
2023/04/20 04:58:56;;;;;;;3.90;3.50;;;;;;;;;;5032013;28;20291;-52
2023/04/20 05:01:22;;;;;;;4.97;3.27;;;;;;;;;;5031994;28;20224;-51
2023/04/20 05:03:48;;;;;;;4.07;3.20;;;;;;;;;;5031807;28;20323;-52
2023/04/20 05:06:15;;;;;;;3.50;3.10;;;;;;;;;;5032022;28;20197;-52
2023/04/20 05:08:41;;;;;;;5.50;3.33;;;;;;;;;;5032105;28;20570;-52
2023/04/20 05:11:07;;;;;;;3.73;3.23;;;;;;;;;;5031945;28;20192;-51
2023/04/20 05:13:33;;;;;;;4.13;3.70;;;;;;;;;;5031755;28;20192;-51
2023/04/20 05:15:59;;;;;;;6.93;3.70;;;;;;;;;;5031209;28;20203;-51
2023/04/20 05:18:25;;;;;;;6.53;3.50;;;;;;;;;;5031891;28;20225;-51
2023/04/20 05:20:51;;;;;;;6.23;3.87;;;;;;;;;;5031339;28;20296;-51
2023/04/20 05:23:19;;;;;;;4.77;4.00;;;;;;;;;;5031459;28;20229;-52
2023/04/20 05:25:45;;;;;;;5.03;3.20;;;;;;;;;;5031431;28;20565;-51
2023/04/20 05:28:11;;;;;;;4.70;3.20;;;;;;;;;;5031687;28;20567;-52
2023/04/20 05:30:37;;;;;;;4.90;3.60;;;;;;;;;;5031340;28;20542;-52
2023/04/20 05:33:03;;;;;;;6.40;3.60;;;;;;;;;;5031286;28;20208;-52
2023/04/20 05:35:29;;;;;;;5.20;3.63;;;;;;;;;;5031444;28;20548;-52
2023/04/20 05:37:59;;;;;;;5.07;3.40;;;;;;;;;;5031491;28;20208;-52
2023/04/20 05:40:26;;;;;;;5.77;3.30;;;;;;;;;;5031527;28;20201;-52
2023/04/20 05:42:52;;;;;;;5.33;3.40;;;;;;;;;;5031288;28;20209;-52
2023/04/20 05:45:18;;;;;;;4.70;4.07;;;;;;;;;;5031247;28;20205;-52
2023/04/20 05:47:51;;;;;;;4.37;3.60;;;;;;;;;;5031085;28;20659;-52
2023/04/20 05:50:17;;;;;;;4.40;3.33;;;;;;;;;;5031282;28;20284;-52
2023/04/20 05:52:43;;;;;;;5.47;3.33;;;;;;;;;;5030218;28;20713;-52
2023/04/20 05:55:09;;;;;;;5.87;3.70;;;;;;;;;;5031454;28;20205;-51
2023/04/20 05:57:41;;;;;;;7.20;4.20;;;;;;;;;;5030837;28;20216;-52
2023/04/20 06:00:08;;;;;;;5.87;3.60;;;;;;;;;;5031306;28;20213;-52
2023/04/20 06:02:34;;;;;;;7.60;3.97;;;;;;;;;;5031122;28;20262;-52
2023/04/20 06:05:00;;;;;;;6.73;3.73;;;;;;;;;;5030990;28;20216;-52
2023/04/20 06:07:26;;;;;;;4.90;3.53;;;;;;;;;;5031322;28;20631;-52
2023/04/20 06:09:52;;;;;;;5.80;4.03;;;;;;;;;;5031011;28;20196;-52
2023/04/20 06:12:18;;;;;;;4.60;3.50;;;;;;;;;;5031087;28;20565;-51
2023/04/20 06:14:45;;;;;;;5.23;3.90;;;;;;;;;;5030740;28;20239;-51
2023/04/20 06:17:11;;;;;;;4.13;3.53;;;;;;;;;;5031076;28;20209;-52
2023/04/20 06:19:37;;;;;;;6.07;3.60;;;;;;;;;;5030918;28;20199;-52
2023/04/20 06:22:05;;;;;;;3.83;3.43;;;;;;;;;;5030785;28;20612;-52
2023/04/20 06:24:32;;;;;;;5.73;3.53;;;;;;;;;;5030874;28;20296;-52
2023/04/20 06:26:57;;;;;;;6.00;3.60;;;;;;;;;;5030861;28;20200;-52
2023/04/20 06:29:24;;;;;;;6.53;3.47;;;;;;;;;;5031055;28;20565;-52
2023/04/20 06:31:51;;;;;;;5.73;3.50;;;;;;;;;;5030781;28;20197;-51
2023/04/20 06:34:17;;;;;;;5.83;3.83;;;;;;;;;;5030793;28;20201;-52
2023/04/20 06:36:43;;;;;;;5.07;3.33;;;;;;;;;;5030850;28;20296;-51
2023/04/20 06:39:12;;;;;;;6.10;3.37;;;;;;;;;;5030979;28;20209;-52
2023/04/20 06:41:38;;;;;;;5.40;3.70;;;;;;;;;;5030750;28;20620;-51
2023/04/20 06:44:04;;;;;;;4.23;3.70;;;;;;;;;;5030681;28;20260;-52
2023/04/20 06:46:30;;;;;;;5.47;3.77;;;;;;;;;;5030691;28;20227;-51
2023/04/20 06:48:58;;;;;;;4.53;3.63;;;;;;;;;;5030648;28;20236;-51
2023/04/20 06:51:25;;;;;;;4.87;3.63;;;;;;;;;;5030943;28;20240;-50
2023/04/20 06:53:51;;;;;;;4.73;3.37;;;;;;;;;;5030481;28;20220;-51
2023/04/20 06:56:17;;;;;;;4.33;3.53;;;;;;;;;;5030606;28;20312;-50
2023/04/20 06:58:43;;;;;;;5.20;3.87;;;;;;;;;;5030444;28;20336;-51
2023/04/20 07:01:09;;;;;;;6.10;3.87;;;;;;;;;;5030745;28;20207;-51
2023/04/20 07:03:36;;;;;;;4.30;3.90;;;;;;;;;;5031055;28;20229;-52
2023/04/20 07:06:04;;;;;;;4.73;3.73;;;;;;;;;;5034182;28;20258;-52
2023/04/20 07:08:30;;;;;;;5.90;3.90;;;;;;;;;;5034107;28;20605;-51
2023/04/20 07:10:56;;;;;;;6.30;3.33;;;;;;;;;;5034097;28;20201;-51
2023/04/20 07:13:22;;;;;;;5.90;4.00;;;;;;;;;;5034138;28;20268;-51
2023/04/20 07:15:48;;;;;;;7.03;3.90;;;;;;;;;;5033865;28;20197;-51
2023/04/20 07:18:14;;;;;;;6.17;3.77;;;;;;;;;;5033791;28;20663;-51
2023/04/20 07:20:40;;;;;;;4.90;3.60;;;;;;;;;;5034129;28;20204;-50
2023/04/20 07:23:08;;;;;;;4.37;3.50;;;;;;;;;;5033839;28;20593;-50
2023/04/20 07:25:34;;;;;;;4.87;3.90;;;;;;;;;;5033936;28;20197;-49
2023/04/20 07:28:00;;;;;;;7.17;4.03;;;;;;;;;;5033740;28;20205;-50
2023/04/20 07:30:26;;;;;;;4.17;3.67;;;;;;;;;;5033971;28;20395;-51
2023/04/20 07:32:51;;;;;;;4.50;3.63;;;;;;;;;;5033960;28;20207;-50
2023/04/20 07:35:18;;;;;;;4.67;3.87;;;;;;;;;;5033703;28;20564;-51
2023/04/20 07:37:44;;;;;;;6.30;4.00;;;;;;;;;;5033804;28;20197;-51
2023/04/20 07:40:11;;;;;;;3.90;3.50;;;;;;;;;;5033821;28;20201;-51
2023/04/20 07:42:37;;;;;;;5.80;3.53;;;;;;;;;;5033563;28;20298;-51
2023/04/20 07:45:04;;;;;;;5.33;3.57;;;;;;;;;;5033500;28;20591;-51
2023/04/20 07:47:30;;;;;;;5.73;4.03;;;;;;;;;;5033353;28;20689;-51
2023/04/20 07:49:56;;;;;;;6.43;4.17;;;;;;;;;;5033559;28;20300;-53
2023/04/20 07:52:22;;;;;;;5.13;4.00;;;;;;;;;;5033532;28;20217;-52
2023/04/20 07:54:48;;;;;;;4.97;4.13;;;;;;;;;;5033285;28;20220;-51
2023/04/20 07:57:15;;;;;;;6.27;4.13;;;;;;;;;;5033328;28;20220;-54
2023/04/20 07:59:42;;;;;;;4.23;3.83;;;;;;;;;;5033184;28;20233;-54
2023/04/20 08:02:08;;;;;;;5.73;4.10;;;;;;;;;;5033283;28;20212;-52
2023/04/20 08:04:35;;;;;;;5.40;4.40;;;;;;;;;;5033088;28;20286;-55
2023/04/20 08:07:01;;;;;;;4.90;4.00;;;;;;;;;;5033018;28;20197;-54
2023/04/20 08:09:28;;;;;;;5.67;4.30;;;;;;;;;;5033189;28;20197;-52
2023/04/20 08:11:55;;;;;;;5.03;4.07;;;;;;;;;;5033093;28;20197;-52
2023/04/20 08:14:22;;;;;;;4.90;4.30;;;;;;;;;;5033032;28;20203;-58
2023/04/20 08:16:48;;;;;;;6.03;4.00;;;;;;;;;;5031820;28;20237;-54
2023/04/20 08:19:14;;;;;;;6.90;4.20;;;;;;;;;;5033058;28;20224;-55
2023/04/20 08:21:41;;;;;;;5.03;4.07;;;;;;;;;;5032966;28;20299;-56
2023/04/20 08:24:07;;;;;;;5.67;4.30;;;;;;;;;;5032661;28;20224;-54
2023/04/20 08:26:34;;;;;;;5.63;4.40;;;;;;;;;;5032733;28;20283;-53
2023/04/20 08:29:00;;;;;;;5.10;4.27;;;;;;;;;;5032504;28;20201;-54
2023/04/20 08:31:28;;;;;;;4.80;4.30;;;;;;;;;;5032753;28;20255;-51
2023/04/20 08:33:54;;;;;;;6.63;4.50;;;;;;;;;;5030802;28;20204;-54
2023/04/20 08:36:20;;;;;;;5.40;3.80;;;;;;;;;;5032894;28;20296;-53
2023/04/20 08:38:46;;;;;;;5.07;4.57;;;;;;;;;;5032782;28;20291;-57
2023/04/20 08:41:13;;;;;;;4.67;3.77;;;;;;;;;;5032875;28;20205;-54
2023/04/20 08:43:40;;;;;;;4.60;4.07;;;;;;;;;;5032741;28;20236;-55
2023/04/20 08:46:07;;;;;;;7.20;4.40;;;;;;;;;;5032652;28;20203;-55
2023/04/20 08:48:35;;;;;;;6.07;4.97;;;;;;;;;;5032591;28;20699;-55
2023/04/20 08:51:02;;;;;;;5.70;4.30;;;;;;;;;;5032472;28;20284;-55
2023/04/20 08:53:28;;;;;;;4.97;4.20;;;;;;;;;;5032665;28;20250;-54
2023/04/20 08:55:56;;;;;;;5.43;4.77;;;;;;;;;;5032394;28;20603;-55
2023/04/20 08:58:23;;;;;;;4.90;4.37;;;;;;;;;;5032276;28;20842;-54
2023/04/20 09:00:49;;;;;;;4.97;4.30;;;;;;;;;;5032310;28;20193;-55
2023/04/20 09:03:15;;;;;;;5.37;4.30;;;;;;;;;;5032397;28;20318;-54
2023/04/20 09:05:43;;;;;;;6.97;4.73;;;;;;;;;;5032363;28;20766;-54
2023/04/20 09:08:10;;;;;;;6.13;4.97;;;;;;;;;;5032535;28;20200;-54
2023/04/20 09:10:39;;;;;;;6.20;5.03;;;;;;;;;;5032277;28;20192;-55
2023/04/20 09:13:05;;;;;;;6.10;4.77;;;;;;;;;;5032050;28;20209;-55
2023/04/20 09:15:31;;;;;;;7.03;5.37;;;;;;;;;;5032066;28;20193;-55
2023/04/20 09:17:57;;;;;;;7.00;4.90;;;;;;;;;;5032029;28;20675;-55
2023/04/20 09:20:28;;;;;;;6.20;4.93;;;;;;;;;;5032163;28;20201;-55
2023/04/20 09:22:55;;;;;;;5.70;4.40;;;;;;;;;;5031941;28;20200;-54
2023/04/20 09:25:21;;;;;;;6.53;5.00;;;;;;;;;;5031972;28;20200;-53
2023/04/20 09:27:54;;;;;;;6.80;4.87;;;;;;;;;;5031598;28;20566;-54
2023/04/20 09:30:20;;;;;;;5.47;4.80;;;;;;;;;;5031897;28;20251;-54
2023/04/20 09:32:46;;;;;;;6.17;4.80;;;;;;;;;;5031768;28;20208;-55
2023/04/20 09:35:12;;;;;;;5.80;4.50;;;;;;;;;;5031739;28;20223;-54
2023/04/20 09:37:46;;;;;;;7.23;4.90;;;;;;;;;;5031780;28;20228;-54
2023/04/20 09:40:14;;;;;;;6.17;4.60;;;;;;;;;;5031675;28;20196;-54
2023/04/20 09:42:42;;;;;;;5.47;4.83;;;;;;;;;;5031775;28;20247;-55
2023/04/20 09:45:08;;;;;;;6.33;4.77;;;;;;;;;;5031474;28;20291;-55
2023/04/20 09:47:35;;;;;;;6.17;5.47;;;;;;;;;;5031706;28;20200;-54
2023/04/20 09:50:02;;;;;;;5.03;4.53;;;;;;;;;;5031549;28;20255;-54
2023/04/20 09:52:28;;;;;;;5.47;4.70;;;;;;;;;;5031665;28;20651;-54
2023/04/20 09:54:54;;;;;;;6.50;4.43;;;;;;;;;;5031592;28;20641;-53
2023/04/20 09:57:22;;;;;;;5.43;4.73;;;;;;;;;;5031450;28;20229;-52
2023/04/20 09:59:48;;;;;;;5.83;4.60;;;;;;;;;;5031203;28;20232;-52
2023/04/20 10:02:14;;;;;;;6.00;4.70;;;;;;;;;;5031449;28;20216;-51
2023/04/20 10:04:50;;;;;;;5.47;4.80;;;;;;;;;;5031420;28;20221;-53
2023/04/20 10:07:22;;;;;;;5.27;4.77;;;;;;;;;;5031477;28;20252;-54
2023/04/20 10:09:48;;;;;;;5.20;4.33;;;;;;;;;;5031325;28;20263;-52
2023/04/20 10:12:19;;;;;;;4.63;4.17;;;;;;;;;;5030871;28;20574;-53
2023/04/20 10:14:54;;;;;;;5.33;4.50;;;;;;;;;;5030542;28;20189;-52
2023/04/20 10:17:29;;;;;;;4.53;3.80;;;;;;;;;;5030805;28;20212;-52
2023/04/20 10:19:55;;;;;;;7.67;4.10;;;;;;;;;;5030362;28;20282;-54
2023/04/20 10:22:28;;;;;;;4.67;4.00;;;;;;;;;;5030639;28;20201;-53
2023/04/20 10:24:54;;;;;;;4.27;3.83;;;;;;;;;;5030637;28;20233;-53
2023/04/20 10:27:20;;;;;;;4.20;3.80;;;;;;;;;;5030692;28;20292;-53
2023/04/20 10:29:47;;;;;;;4.83;4.13;;;;;;;;;;5030319;28;20641;-53
2023/04/20 10:32:23;;;;;;;4.87;3.87;;;;;;;;;;5030547;28;20280;-54
2023/04/20 10:34:59;;;;;;;4.40;3.93;;;;;;;;;;5030304;28;20439;-54
2023/04/20 10:37:25;;;;;;;6.13;4.07;;;;;;;;;;5030783;28;20196;-55
2023/04/20 10:39:51;;;;;;;4.27;3.87;;;;;;;;;;5033098;28;20220;-54
2023/04/20 10:42:17;;;;;;;6.53;4.13;;;;;;;;;;5034407;28;20227;-53
2023/04/20 10:44:48;;;;;;;4.83;4.30;;;;;;;;;;5034134;28;20220;-55
2023/04/20 10:47:14;;;;;;;5.57;4.00;;;;;;;;;;5034405;28;20624;-53
2023/04/20 10:49:41;;;;;;;5.37;4.20;;;;;;;;;;5034621;28;20201;-54
2023/04/20 10:52:07;;;;;;;5.03;4.53;;;;;;;;;;5034230;28;20275;-53
2023/04/20 10:54:36;;;;;;;6.87;5.20;;;;;;;;;;5034112;28;20638;-53
2023/04/20 10:57:02;;;;;;;4.80;4.23;;;;;;;;;;5034126;28;20224;-53
2023/04/20 10:59:28;;;;;;;5.70;5.03;;;;;;;;;;5033989;28;20243;-53
2023/04/20 11:01:58;;;;;;;4.87;4.37;;;;;;;;;;5034219;28;20196;-53
2023/04/20 11:04:34;;;;;;;5.90;4.10;;;;;;;;;;5034170;28;20232;-53
2023/04/20 11:07:04;;;;;;;5.17;4.47;;;;;;;;;;5033905;28;20278;-53
2023/04/20 11:09:32;;;;;;;4.63;4.07;;;;;;;;;;5033912;28;20702;-53
2023/04/20 11:11:59;;;;;;;5.60;4.37;;;;;;;;;;5033852;28;20608;-52
2023/04/20 11:14:25;;;;;;;4.57;4.17;;;;;;;;;;5033999;28;20193;-53
2023/04/20 11:16:51;;;;;;;6.93;3.73;;;;;;;;;;5033541;28;20247;-55
2023/04/20 11:19:23;;;;;;;4.30;3.90;;;;;;;;;;5033814;28;20612;-53
2023/04/20 11:21:49;;;;;;;4.13;3.60;;;;;;;;;;5033715;28;20216;-54
2023/04/20 11:24:19;;;;;;;4.70;3.80;;;;;;;;;;5033607;28;20233;-53
2023/04/20 11:26:48;;;;;;;4.93;3.93;;;;;;;;;;5033464;28;20292;-53
2023/04/20 11:29:25;;;;;;;5.03;4.10;;;;;;;;;;5033649;28;20200;-54
2023/04/20 11:31:51;;;;;;;5.23;3.90;;;;;;;;;;5033582;28;20203;-54
2023/04/20 11:34:18;;;;;;;4.63;3.90;;;;;;;;;;5033623;28;20189;-54
2023/04/20 11:36:45;;;;;;;4.30;3.90;;;;;;;;;;5033545;28;20209;-54
2023/04/20 11:39:15;;;;;;;5.33;3.80;;;;;;;;;;5034028;28;20730;-53
2023/04/20 11:41:41;;;;;;;4.40;3.47;;;;;;;;;;5034099;28;20201;-53
2023/04/20 11:44:07;;;;;;;4.73;4.00;;;;;;;;;;5033399;28;20275;-53
2023/04/20 11:46:36;;;;;;;3.97;3.57;;;;;;;;;;5033923;28;20196;-53
2023/04/20 11:49:03;;;;;;;4.50;3.80;;;;;;;;;;5033717;28;20205;-52
2023/04/20 11:51:30;;;;;;;5.77;3.93;;;;;;;;;;5032375;28;20558;-53
2023/04/20 11:53:57;;;;;;;4.30;3.90;;;;;;;;;;5033779;28;20196;-55
2023/04/20 11:56:23;;;;;;;4.23;3.77;;;;;;;;;;5033441;28;20695;-53
2023/04/20 11:58:49;;;;;;;5.33;3.90;;;;;;;;;;5033250;28;20244;-53
2023/04/20 12:01:15;;;;;;;4.83;3.93;;;;;;;;;;5033556;28;20571;-53
2023/04/20 12:03:41;;;;;;;4.47;3.63;;;;;;;;;;5033716;28;20220;-54
2023/04/20 12:06:07;;;;;;;5.30;3.80;;;;;;;;;;5033495;28;20554;-53
2023/04/20 12:08:33;;;;;;;4.33;3.83;;;;;;;;;;5033434;28;20698;-53
2023/04/20 12:11:01;;;;;;;4.67;4.17;;;;;;;;;;5033266;28;20236;-53
2023/04/20 12:13:27;;;;;;;5.17;4.10;;;;;;;;;;5033521;28;20224;-53
2023/04/20 12:15:53;;;;;;;5.10;4.20;;;;;;;;;;5033211;28;20240;-53
2023/04/20 12:18:19;;;;;;;4.03;3.63;;;;;;;;;;5033277;28;20197;-54
2023/04/20 12:20:46;;;;;;;5.10;4.20;;;;;;;;;;5033195;28;20225;-52
2023/04/20 12:23:12;;;;;;;3.93;3.53;;;;;;;;;;5033263;28;20201;-54
2023/04/20 12:25:38;;;;;;;4.90;3.93;;;;;;;;;;5033206;28;20193;-53
2023/04/20 12:28:06;;;;;;;5.00;4.00;;;;;;;;;;5032976;28;20197;-53
2023/04/20 12:30:33;;;;;;;4.40;4.00;;;;;;;;;;5032988;28;20239;-53
2023/04/20 12:32:59;;;;;;;3.87;3.47;;;;;;;;;;5032939;28;20201;-52
2023/04/20 12:35:26;;;;;;;4.00;3.60;;;;;;;;;;5033077;28;20239;-52
2023/04/20 12:37:52;;;;;;;4.50;4.10;;;;;;;;;;5032733;28;20204;-52
2023/04/20 12:40:18;;;;;;;3.70;3.30;;;;;;;;;;5032749;28;20212;-53
2023/04/20 12:42:44;;;;;;;5.80;3.63;;;;;;;;;;5032634;28;20667;-54
2023/04/20 12:45:11;;;;;;;4.40;4.00;;;;;;;;;;5032944;28;20267;-52
2023/04/20 12:47:38;;;;;;;3.30;2.90;;;;;;;;;;5032700;28;20208;-54
2023/04/20 12:50:06;;;;;;;3.60;3.23;;;;;;;;;;5032508;28;20201;-53
2023/04/20 12:52:32;;;;;;;4.60;3.50;;;;;;;;;;5032443;28;20391;-54
2023/04/20 12:54:58;;;;;;;6.53;3.33;;;;;;;;;;5032547;28;20193;-53
2023/04/20 12:57:24;;;;;;;3.60;3.20;;;;;;;;;;5032627;28;20308;-53
2023/04/20 12:59:50;;;;;;;3.93;3.43;;;;;;;;;;5032264;28;20252;-53
2023/04/20 13:02:18;;;;;;;4.47;3.87;;;;;;;;;;5032081;28;20225;-54
2023/04/20 13:04:45;;;;;;;3.80;3.13;;;;;;;;;;5032264;28;20324;-53
2023/04/20 13:07:11;;;;;;;3.97;3.60;;;;;;;;;;5032438;28;20197;-53
2023/04/20 13:09:37;;;;;;;3.37;3.07;;;;;;;;;;5032352;28;20239;-53
2023/04/20 13:12:03;;;;;;;3.67;3.37;;;;;;;;;;5032206;28;20193;-53
2023/04/20 13:14:31;;;;;;;3.60;3.20;;;;;;;;;;5032069;28;20201;-53
2023/04/20 13:17:00;;;;;;;4.83;3.73;;;;;;;;;;5032192;28;20202;-53
2023/04/20 13:19:27;;;;;;;3.83;3.53;;;;;;;;;;5032319;28;20224;-53
2023/04/20 13:21:53;;;;;;;4.40;3.50;;;;;;;;;;5032005;28;20204;-53
2023/04/20 13:24:19;;;;;;;4.07;3.23;;;;;;;;;;5031829;28;20229;-53
2023/04/20 13:26:45;;;;;;;3.67;3.20;;;;;;;;;;5032009;28;20201;-54
2023/04/20 13:29:11;;;;;;;4.40;3.67;;;;;;;;;;5032130;28;20259;-53
2023/04/20 13:31:39;;;;;;;3.60;3.30;;;;;;;;;;5031964;28;20263;-53
2023/04/20 13:34:05;;;;;;;4.73;3.50;;;;;;;;;;5031838;28;20562;-53
2023/04/20 13:36:32;;;;;;;6.80;3.73;;;;;;;;;;5031937;28;20283;-53
2023/04/20 13:38:59;;;;;;;3.47;3.17;;;;;;;;;;5031691;28;20204;-53
2023/04/20 13:41:25;;;;;;;5.20;3.43;;;;;;;;;;5031820;28;20678;-53
2023/04/20 13:43:51;;;;;;;4.20;3.07;;;;;;;;;;5031318;28;20263;-53
2023/04/20 13:46:18;;;;;;;4.63;3.20;;;;;;;;;;5031728;28;20731;-53
2023/04/20 13:48:44;;;;;;;3.90;3.50;;;;;;;;;;5031655;28;20204;-54
2023/04/20 13:51:11;;;;;;;5.07;3.67;;;;;;;;;;5031579;28;20611;-53
2023/04/20 13:53:38;;;;;;;4.07;3.60;;;;;;;;;;5031456;28;20669;-53
2023/04/20 13:56:04;;;;;;;3.90;3.27;;;;;;;;;;5031353;28;20353;-53
2023/04/20 13:58:30;;;;;;;4.17;3.40;;;;;;;;;;5031297;28;20260;-53
2023/04/20 14:00:56;;;;;;;3.40;3.10;;;;;;;;;;5031545;28;20243;-53
2023/04/20 14:03:24;;;;;;;3.73;3.30;;;;;;;;;;5031497;28;20197;-53
2023/04/20 14:05:50;;;;;;;3.50;3.20;;;;;;;;;;5031323;28;20266;-53
2023/04/20 14:08:16;;;;;;;4.00;3.63;;;;;;;;;;5031319;28;20235;-53
2023/04/20 14:10:43;;;;;;;3.70;3.40;;;;;;;;;;5031505;28;20590;-54
2023/04/20 14:13:09;;;;;;;4.30;3.90;;;;;;;;;;5030512;28;20299;-53
2023/04/20 14:15:35;;;;;;;3.80;3.50;;;;;;;;;;5031269;28;20276;-52
2023/04/20 14:18:01;;;;;;;5.17;4.07;;;;;;;;;;5031021;28;20200;-53
2023/04/20 14:20:27;;;;;;;4.93;4.00;;;;;;;;;;5031296;28;20205;-53
2023/04/20 14:22:53;;;;;;;4.50;4.10;;;;;;;;;;5031275;28;20718;-53
2023/04/20 14:25:19;;;;;;;4.43;3.90;;;;;;;;;;5031248;28;20316;-53
2023/04/20 14:27:47;;;;;;;5.90;4.40;;;;;;;;;;5031115;28;20247;-53
2023/04/20 14:30:13;;;;;;;5.37;4.43;;;;;;;;;;5031287;28;20663;-53
2023/04/20 14:32:40;;;;;;;6.03;4.47;;;;;;;;;;5031344;28;20195;-53
2023/04/20 14:35:07;;;;;;;6.27;4.83;;;;;;;;;;5031121;28;20201;-53
2023/04/20 14:37:34;;;;;;;6.43;4.77;;;;;;;;;;5031070;28;20200;-53
2023/04/20 14:40:00;;;;;;;5.80;4.73;;;;;;;;;;5030960;28;20204;-52